createdAt,value
2022-09-11T00:00:55.789Z,99.99
2022-09-11T00:01:55.837Z,99.99
2022-09-11T00:02:56.004Z,99.99
2022-09-11T00:03:55.771Z,99.99
2022-09-11T00:04:55.768Z,99.99
2022-09-11T00:05:55.752Z,99.99
2022-09-11T00:06:55.726Z,99.99
2022-09-11T00:07:55.734Z,99.99
2022-09-11T00:08:55.748Z,99.99
2022-09-11T00:09:55.728Z,99.92
2022-09-11T00:10:59.308Z,99.92
2022-09-11T00:11:55.934Z,99.62
2022-09-11T00:12:55.668Z,99.99
2022-09-11T00:13:56.178Z,99.99
2022-09-11T00:14:57.480Z,99.72
2022-09-11T00:15:55.732Z,99.99
2022-09-11T00:16:57.328Z,99.99
2022-09-11T00:17:55.644Z,99.99
2022-09-11T00:18:55.624Z,99.99
2022-09-11T00:19:55.632Z,99.99
2022-09-11T00:20:55.583Z,99.99
2022-09-11T00:21:55.594Z,99.99
2022-09-11T00:22:55.557Z,99.99
2022-09-11T00:23:55.845Z,99.99
2022-09-11T00:24:55.581Z,99.99
2022-09-11T00:25:55.598Z,99.99
2022-09-11T00:26:55.518Z,99.92
2022-09-11T00:27:55.566Z,99.99
2022-09-11T00:28:55.525Z,99.99
2022-09-11T00:29:55.554Z,99.99
2022-09-11T00:30:55.512Z,99.99
2022-09-11T00:31:55.477Z,99.99
2022-09-11T00:32:55.763Z,99.99
2022-09-11T00:33:55.520Z,99.99
2022-09-11T00:34:55.448Z,99.99
2022-09-11T00:35:55.437Z,99.99
2022-09-11T00:36:55.505Z,99.99
2022-09-11T00:37:55.412Z,99.99
2022-09-11T00:38:55.443Z,99.82
2022-09-11T00:39:55.476Z,99.62
2022-09-11T00:40:55.385Z,99.99
2022-09-11T00:41:55.390Z,99.99
2022-09-11T00:42:55.379Z,99.82
2022-09-11T00:43:55.378Z,99.99
2022-09-11T00:44:55.391Z,99.92
2022-09-11T00:45:55.460Z,99.99
2022-09-11T00:46:55.341Z,99.41
2022-09-11T00:47:55.340Z,99.72
2022-09-11T00:48:55.412Z,99.82
2022-09-11T00:49:55.325Z,99.41
2022-09-11T00:50:55.314Z,99.11
2022-09-11T00:51:55.277Z,99.21
2022-09-11T00:52:55.302Z,99.21
2022-09-11T00:53:55.258Z,99.92
2022-09-11T00:54:55.255Z,99.99
2022-09-11T00:55:55.224Z,99.99
2022-09-11T00:56:55.222Z,99.99
2022-09-11T00:57:55.191Z,99.99
2022-09-11T00:58:55.208Z,99.99
2022-09-11T00:59:55.185Z,99.99
2022-09-11T01:00:55.253Z,99.99
2022-09-11T01:01:55.227Z,99.82
2022-09-11T01:02:55.182Z,99.62
2022-09-11T01:03:55.184Z,99.72
2022-09-11T01:04:55.168Z,99.88
2022-09-11T01:05:55.140Z,99.41
2022-09-11T01:06:55.132Z,98.91
2022-09-11T01:07:55.097Z,98.60
2022-09-11T01:08:55.121Z,99.52
2022-09-11T01:09:55.107Z,99.82
2022-09-11T01:10:55.068Z,99.82
2022-09-11T01:11:55.058Z,99.99
2022-09-11T01:12:55.308Z,99.62
2022-09-11T01:13:55.074Z,99.92
2022-09-11T01:14:55.038Z,99.99
2022-09-11T01:15:55.090Z,99.92
2022-09-11T01:16:55.024Z,99.99
2022-09-11T01:17:54.998Z,99.72
2022-09-11T01:18:55.019Z,99.72
2022-09-11T01:19:54.969Z,99.99
2022-09-11T01:20:54.985Z,99.99
2022-09-11T01:21:54.946Z,99.99
2022-09-11T01:22:54.965Z,99.87
2022-09-11T01:23:54.957Z,99.99
2022-09-11T01:24:54.939Z,99.97
2022-09-11T01:25:54.913Z,99.87
2022-09-11T01:26:54.932Z,99.99
2022-09-11T01:27:54.916Z,99.99
2022-09-11T01:28:54.939Z,99.99
2022-09-11T01:29:54.893Z,99.99
2022-09-11T01:30:54.885Z,99.99
2022-09-11T01:31:55.630Z,99.99
2022-09-11T01:32:54.863Z,99.99
2022-09-11T01:33:54.860Z,99.99
2022-09-11T01:34:54.831Z,99.99
2022-09-11T01:35:54.810Z,99.99
2022-09-11T01:36:54.828Z,99.99
2022-09-11T01:37:54.864Z,99.99
2022-09-11T01:38:54.811Z,99.99
2022-09-11T01:39:54.802Z,99.99
2022-09-11T01:40:54.781Z,99.99
2022-09-11T01:41:54.763Z,99.99
2022-09-11T01:42:54.755Z,99.99
2022-09-11T01:43:54.744Z,99.99
2022-09-11T01:44:55.456Z,99.87
2022-09-11T01:45:54.763Z,99.56
2022-09-11T01:46:54.750Z,99.87
2022-09-11T01:47:54.685Z,99.99
2022-09-11T01:48:54.701Z,99.99
2022-09-11T01:49:54.667Z,99.99
2022-09-11T01:50:54.686Z,99.99
2022-09-11T01:51:54.636Z,99.99
2022-09-11T01:52:54.668Z,99.99
2022-09-11T01:54:22.950Z,99.36
2022-09-11T01:54:54.637Z,99.99
2022-09-11T01:55:54.623Z,99.99
2022-09-11T01:56:54.602Z,99.97
2022-09-11T01:57:54.604Z,99.66
2022-09-11T01:58:54.620Z,99.97
2022-09-11T01:59:54.567Z,99.99
2022-09-11T02:00:54.588Z,99.97
2022-09-11T02:01:54.568Z,99.99
2022-09-11T02:02:54.552Z,99.97
2022-09-11T02:03:54.716Z,99.99
2022-09-11T02:04:54.534Z,99.99
2022-09-11T02:05:54.501Z,99.99
2022-09-11T02:06:54.544Z,99.99
2022-09-11T02:07:54.516Z,99.99
2022-09-11T02:08:54.489Z,99.99
2022-09-11T02:09:54.456Z,99.99
2022-09-11T02:10:54.492Z,99.99
2022-09-11T02:11:54.457Z,99.99
2022-09-11T02:12:54.694Z,99.99
2022-09-11T02:13:54.442Z,99.99
2022-09-11T02:14:54.422Z,99.99
2022-09-11T02:15:54.468Z,99.99
2022-09-11T02:16:54.663Z,99.99
2022-09-11T02:17:54.382Z,99.99
2022-09-11T02:18:56.070Z,99.87
2022-09-11T02:19:54.375Z,99.99
2022-09-11T02:20:54.372Z,99.99
2022-09-11T02:21:54.347Z,99.99
2022-09-11T02:22:54.360Z,99.99
2022-09-11T02:23:54.369Z,99.99
2022-09-11T02:24:54.337Z,99.99
2022-09-11T02:25:54.732Z,99.99
2022-09-11T02:26:54.585Z,99.99
2022-09-11T02:27:54.568Z,99.99
2022-09-11T02:28:54.324Z,99.99
2022-09-11T02:29:54.302Z,99.99
2022-09-11T02:30:54.269Z,99.99
2022-09-11T02:31:54.245Z,99.99
2022-09-11T02:32:54.488Z,99.99
2022-09-11T02:33:54.242Z,99.99
2022-09-11T02:34:54.791Z,99.99
2022-09-11T02:35:54.195Z,99.99
2022-09-11T02:36:54.206Z,99.99
2022-09-11T02:37:54.174Z,99.99
2022-09-11T02:38:57.891Z,99.82
2022-09-11T02:39:54.184Z,99.99
2022-09-11T02:40:54.185Z,99.99
2022-09-11T02:41:54.128Z,99.99
2022-09-11T02:42:54.854Z,99.99
2022-09-11T02:43:54.128Z,99.99
2022-09-11T02:44:54.152Z,99.99
2022-09-11T02:45:54.171Z,99.99
2022-09-11T02:46:54.123Z,99.92
2022-09-11T02:47:54.070Z,99.99
2022-09-11T02:48:54.066Z,99.99
2022-09-11T02:49:54.075Z,99.99
2022-09-11T02:50:54.045Z,99.99
2022-09-11T02:51:54.045Z,99.99
2022-09-11T02:52:54.862Z,99.99
2022-09-11T02:53:54.026Z,99.99
2022-09-11T02:54:54.029Z,99.99
2022-09-11T02:55:54.032Z,99.72
2022-09-11T02:56:54.023Z,99.99
2022-09-11T02:57:53.972Z,99.99
2022-09-11T02:58:53.986Z,99.99
2022-09-11T02:59:53.981Z,99.99
2022-09-11T03:00:54.245Z,99.99
2022-09-11T03:01:53.983Z,99.99
2022-09-11T03:02:55.178Z,99.99
2022-09-11T03:03:53.937Z,99.99
2022-09-11T03:04:53.921Z,99.99
2022-09-11T03:05:53.933Z,99.82
2022-09-11T03:06:53.871Z,99.41
2022-09-11T03:07:53.924Z,99.99
2022-09-11T03:08:53.901Z,99.72
2022-09-11T03:09:53.861Z,99.99
2022-09-11T03:10:53.865Z,99.99
2022-09-11T03:11:53.872Z,99.99
2022-09-11T03:12:53.831Z,99.72
2022-09-11T03:13:54.023Z,99.99
2022-09-11T03:14:53.806Z,99.99
2022-09-11T03:15:53.922Z,99.82
2022-09-11T03:16:53.784Z,99.92
2022-09-11T03:17:53.751Z,99.99
2022-09-11T03:18:53.791Z,99.99
2022-09-11T03:19:53.771Z,99.92
2022-09-11T03:20:53.736Z,99.99
2022-09-11T03:21:53.747Z,99.99
2022-09-11T03:22:53.719Z,99.99
2022-09-11T03:23:53.953Z,99.99
2022-09-11T03:24:53.688Z,99.99
2022-09-11T03:25:53.674Z,99.99
2022-09-11T03:26:53.672Z,99.99
2022-09-11T03:27:53.649Z,99.99
2022-09-11T03:28:53.663Z,99.99
2022-09-11T03:29:53.631Z,99.99
2022-09-11T03:30:53.632Z,99.99
2022-09-11T03:31:53.676Z,99.99
2022-09-11T03:32:53.660Z,99.99
2022-09-11T03:33:53.594Z,99.99
2022-09-11T03:34:53.618Z,99.99
2022-09-11T03:35:53.597Z,99.99
2022-09-11T03:36:53.586Z,99.99
2022-09-11T03:37:53.628Z,99.99
2022-09-11T03:38:53.617Z,99.99
2022-09-11T03:39:53.582Z,99.99
2022-09-11T03:40:53.539Z,99.99
2022-09-11T03:41:53.525Z,99.99
2022-09-11T03:43:00.207Z,99.99
2022-09-11T03:43:53.498Z,99.99
2022-09-11T03:44:53.546Z,99.99
2022-09-11T03:45:53.564Z,99.99
2022-09-11T03:46:53.505Z,99.99
2022-09-11T03:47:53.462Z,99.99
2022-09-11T03:48:53.482Z,99.99
2022-09-11T03:49:53.460Z,99.99
2022-09-11T03:50:53.435Z,99.99
2022-09-11T03:51:53.418Z,99.99
2022-09-11T03:52:53.420Z,99.99
2022-09-11T03:53:53.412Z,99.99
2022-09-11T03:54:53.397Z,99.99
2022-09-11T03:55:53.391Z,99.99
2022-09-11T03:56:54.979Z,99.99
2022-09-11T03:57:53.387Z,99.99
2022-09-11T03:58:53.355Z,99.99
2022-09-11T03:59:53.358Z,99.99
2022-09-11T04:00:53.344Z,99.99
2022-09-11T04:01:53.340Z,99.99
2022-09-11T04:02:53.298Z,99.99
2022-09-11T04:03:53.286Z,99.99
2022-09-11T04:04:53.290Z,99.99
2022-09-11T04:05:53.281Z,99.99
2022-09-11T04:06:53.260Z,99.99
2022-09-11T04:07:53.246Z,99.99
2022-09-11T04:08:53.232Z,99.99
2022-09-11T04:09:53.269Z,99.99
2022-09-11T04:10:53.248Z,99.99
2022-09-11T04:11:54.256Z,99.99
2022-09-11T04:12:56.388Z,99.99
2022-09-11T04:13:53.248Z,99.99
2022-09-11T04:14:54.497Z,99.99
2022-09-11T04:52:07.288Z,99.99
2022-09-11T05:57:24.338Z,99.99
2022-09-11T05:57:30.439Z,99.99
2022-09-11T05:58:30.371Z,99.99
2022-09-11T05:59:30.405Z,99.99
2022-09-11T06:00:30.347Z,99.99
2022-09-11T06:01:30.398Z,99.99
2022-09-11T06:02:30.365Z,99.99
2022-09-11T06:03:30.374Z,99.99
2022-09-11T10:34:24.937Z,79.33
2022-09-11T10:35:25.988Z,74.99
2022-09-11T10:36:25.790Z,79.73
2022-09-11T10:37:25.813Z,77.72
2022-09-11T10:38:25.751Z,78.52
2022-09-11T10:39:25.748Z,81.04
2022-09-11T10:40:25.816Z,80.00
2022-09-11T10:41:25.725Z,76.07
2022-09-11T10:42:25.724Z,76.67
2022-09-11T10:43:25.691Z,75.06
2022-09-11T10:44:25.691Z,74.42
2022-09-11T10:45:25.687Z,77.14
2022-09-11T10:46:25.688Z,74.62
2022-09-11T10:47:25.649Z,80.57
2022-09-11T10:48:25.636Z,76.23
2022-09-11T10:49:25.619Z,75.53
2022-09-11T10:50:25.621Z,75.63
2022-09-11T10:51:25.604Z,75.36
2022-09-11T10:52:25.639Z,74.96
2022-09-11T10:53:25.586Z,76.87
2022-09-11T10:54:25.592Z,76.97
2022-09-11T10:55:25.573Z,80.10
2022-09-11T10:56:25.558Z,76.87
2022-09-11T10:57:25.564Z,76.97
2022-09-11T10:58:25.539Z,79.29
2022-09-11T10:59:25.521Z,76.40
2022-09-11T11:00:25.545Z,76.00
2022-09-11T11:01:25.592Z,75.20
2022-09-11T11:02:25.519Z,75.20
2022-09-11T11:03:25.490Z,74.73
2022-09-11T11:04:25.475Z,76.44
2022-09-11T11:05:26.412Z,80.38
2022-09-11T11:06:25.515Z,79.53
2022-09-11T11:07:25.714Z,77.82
2022-09-11T11:08:25.418Z,78.92
2022-09-11T11:09:30.384Z,76.27
2022-09-11T11:10:27.178Z,77.48
2022-09-11T11:11:25.397Z,74.35
2022-09-11T11:12:25.836Z,73.85
2022-09-11T11:13:25.386Z,74.55
2022-09-11T11:14:25.357Z,76.07
2022-09-11T11:15:29.568Z,79.09
2022-09-11T11:16:25.372Z,74.76
2022-09-11T11:17:26.388Z,76.27
2022-09-11T11:18:25.354Z,74.99
2022-09-11T11:21:38.006Z,79.23
2022-09-11T11:22:38.964Z,83.06
2022-09-11T11:23:38.974Z,77.62
2022-09-11T11:24:38.931Z,82.42
2022-09-11T11:25:38.945Z,76.07
2022-09-11T11:26:38.924Z,75.46
2022-09-11T11:27:38.993Z,77.48
2022-09-11T11:28:38.970Z,81.01
2022-09-11T11:29:38.892Z,74.55
2022-09-11T11:30:38.877Z,76.57
2022-09-11T11:31:43.692Z,72.24
2022-09-11T11:32:38.863Z,75.06
2022-09-11T11:33:38.857Z,74.55
2022-09-11T11:34:38.848Z,75.36
2022-09-11T11:35:38.837Z,76.77
2022-09-11T11:36:38.841Z,73.65
2022-09-11T11:37:39.123Z,73.95
2022-09-11T11:38:38.785Z,76.37
2022-09-11T11:39:39.750Z,79.86
2022-09-11T11:40:38.798Z,74.93
2022-09-11T11:41:38.758Z,71.91
2022-09-11T11:42:38.745Z,73.65
2022-09-11T11:43:38.747Z,73.35
2022-09-11T11:44:38.743Z,73.35
2022-09-11T11:45:38.782Z,74.15
2022-09-11T11:46:38.724Z,74.15
2022-09-11T11:47:38.787Z,72.85
2022-09-11T11:48:38.693Z,73.45
2022-09-11T11:49:38.691Z,75.26
2022-09-11T11:50:38.668Z,74.86
2022-09-11T11:51:38.651Z,73.85
2022-09-11T11:52:38.654Z,76.37
2022-09-11T11:53:38.646Z,78.99
2022-09-11T11:54:38.634Z,77.48
2022-09-11T11:55:38.635Z,79.60
2022-09-11T11:56:38.621Z,78.55
2022-09-11T11:57:38.592Z,76.54
2022-09-11T11:58:38.661Z,76.54
2022-09-11T11:59:38.582Z,74.22
2022-09-11T12:00:38.596Z,75.63
2022-09-11T12:01:38.581Z,73.82
2022-09-11T12:02:38.547Z,73.75
2022-09-11T12:03:38.587Z,73.25
2022-09-11T12:04:38.520Z,73.85
2022-09-11T12:05:38.499Z,72.14
2022-09-11T12:06:38.500Z,73.65
2022-09-11T12:07:38.482Z,74.26
2022-09-11T12:08:38.512Z,74.96
2022-09-11T12:09:38.479Z,74.86
2022-09-11T12:10:38.497Z,73.95
2022-09-11T12:11:38.461Z,71.33
2022-09-11T12:12:42.013Z,72.94
2022-09-11T12:13:38.477Z,72.61
2022-09-11T12:14:38.441Z,68.71
2022-09-11T12:15:38.431Z,72.61
2022-09-11T12:16:38.465Z,73.41
2022-09-11T12:17:38.374Z,72.81
2022-09-11T12:18:38.387Z,74.02
2022-09-11T12:19:38.358Z,73.61
2022-09-11T12:20:38.383Z,74.52
2022-09-11T12:21:39.176Z,74.22
2022-09-11T12:22:38.352Z,75.49
2022-09-11T12:23:38.320Z,74.69
2022-09-11T12:24:38.316Z,72.97
2022-09-11T12:25:38.295Z,72.74
2022-09-11T12:26:38.311Z,74.75
2022-09-11T12:27:38.936Z,70.03
2022-09-11T12:28:38.272Z,70.63
2022-09-11T12:29:38.276Z,71.80
2022-09-11T12:30:38.272Z,71.09
2022-09-11T12:31:38.280Z,71.00
2022-09-11T12:32:38.262Z,72.61
2022-09-11T12:33:38.210Z,75.68
2022-09-11T12:34:38.209Z,71.77
2022-09-11T12:35:38.204Z,66.47
2022-09-11T12:36:38.194Z,73.61
2022-09-11T12:37:38.194Z,67.98
2022-09-11T12:38:38.177Z,65.67
2022-09-11T12:39:38.248Z,67.07
2022-09-11T12:40:38.145Z,67.68
2022-09-11T12:41:38.133Z,68.98
2022-09-11T12:42:38.143Z,70.73
2022-09-11T12:43:38.111Z,71.13
2022-09-11T12:44:38.364Z,74.35
2022-09-11T12:45:38.115Z,71.90
2022-09-11T12:46:38.088Z,75.82
2022-09-11T12:47:38.093Z,74.92
2022-09-11T12:48:38.061Z,73.00
2022-09-11T12:49:38.060Z,73.71
2022-09-11T12:50:38.090Z,69.29
2022-09-11T12:51:38.045Z,68.59
2022-09-11T12:52:38.031Z,68.68
2022-09-11T12:53:38.011Z,68.18
2022-09-11T12:54:38.698Z,67.88
2022-09-11T12:55:38.004Z,67.18
2022-09-11T12:56:38.004Z,67.58
2022-09-11T12:57:37.984Z,69.29
2022-09-11T12:58:37.964Z,71.20
2022-09-11T12:59:37.977Z,72.41
2022-09-11T13:00:37.942Z,69.18
2022-09-11T13:01:38.043Z,66.87
2022-09-11T13:02:37.935Z,68.68
2022-09-11T13:03:38.543Z,67.78
2022-09-11T13:04:37.901Z,72.41
2022-09-11T13:05:37.918Z,75.02
2022-09-11T13:06:37.897Z,76.03
2022-09-11T13:07:37.889Z,73.41
2022-09-11T13:08:37.854Z,71.00
2022-09-11T13:09:37.848Z,70.09
2022-09-11T13:10:37.839Z,68.48
2022-09-11T13:11:37.846Z,66.37
2022-09-11T13:12:37.830Z,68.68
2022-09-11T13:13:37.793Z,67.38
2022-09-11T13:14:37.793Z,76.83
2022-09-11T13:15:37.845Z,75.92
2022-09-11T13:16:37.775Z,76.53
2022-09-11T13:17:37.772Z,74.21
2022-09-11T13:18:37.752Z,68.88
2022-09-11T13:19:37.735Z,69.29
2022-09-11T13:20:37.730Z,70.09
2022-09-11T13:21:37.718Z,69.79
2022-09-11T13:22:41.220Z,68.59
2022-09-11T13:23:38.230Z,69.29
2022-09-11T13:24:37.700Z,67.88
2022-09-11T13:25:37.670Z,69.32
2022-09-11T13:26:37.690Z,74.35
2022-09-11T13:27:37.671Z,75.96
2022-09-11T13:28:37.841Z,71.53
2022-09-11T13:29:37.640Z,71.43
2022-09-11T13:30:37.654Z,75.35
2022-09-11T13:31:38.205Z,71.33
2022-09-11T13:32:37.629Z,69.92
2022-09-11T13:33:37.612Z,70.23
2022-09-11T13:34:37.599Z,69.42
2022-09-11T13:35:37.587Z,70.43
2022-09-11T13:36:37.580Z,72.24
2022-09-11T13:37:37.542Z,77.47
2022-09-11T13:38:37.564Z,76.76
2022-09-11T13:39:37.586Z,73.44
2022-09-11T13:40:37.530Z,75.15
2022-09-11T13:41:37.633Z,74.65
2022-09-11T13:42:37.508Z,72.14
2022-09-11T13:43:37.510Z,71.33
2022-09-11T13:44:37.493Z,69.92
2022-09-11T13:45:37.507Z,71.13
2022-09-11T13:46:37.465Z,71.33
2022-09-11T13:47:37.694Z,69.79
2022-09-11T13:48:37.468Z,71.40
2022-09-11T13:49:37.810Z,71.50
2022-09-11T13:50:37.435Z,72.91
2022-09-11T13:51:37.474Z,69.99
2022-09-11T13:52:37.405Z,70.19
2022-09-11T13:53:37.430Z,69.38
2022-09-11T13:54:37.379Z,68.08
2022-09-11T13:55:37.368Z,70.39
2022-09-11T13:56:37.358Z,67.98
2022-09-11T13:57:37.336Z,68.88
2022-09-11T13:58:37.585Z,73.21
2022-09-11T13:59:37.314Z,73.21
2022-09-11T14:00:37.339Z,69.99
2022-09-11T14:01:37.380Z,71.20
2022-09-11T14:02:37.372Z,71.50
2022-09-11T14:03:37.297Z,72.00
2022-09-11T14:04:37.283Z,72.71
2022-09-11T14:05:37.262Z,70.70
2022-09-11T14:06:37.268Z,70.70
2022-09-11T14:07:37.241Z,70.89
2022-09-11T14:08:37.259Z,75.72
2022-09-11T14:09:37.209Z,74.01
2022-09-11T14:10:37.215Z,70.09
2022-09-11T14:11:37.875Z,71.00
2022-09-11T14:12:37.205Z,69.82
2022-09-11T14:13:37.198Z,68.91
2022-09-11T14:14:37.189Z,70.83
2022-09-11T14:15:37.308Z,70.73
2022-09-11T14:16:37.149Z,74.85
2022-09-11T14:17:37.138Z,78.58
2022-09-11T14:18:37.156Z,75.76
2022-09-11T14:19:37.115Z,78.67
2022-09-11T14:20:37.716Z,70.03
2022-09-11T14:21:37.095Z,74.25
2022-09-11T14:22:37.101Z,75.26
2022-09-11T14:23:37.123Z,74.65
2022-09-11T14:24:37.072Z,71.43
2022-09-11T14:25:37.054Z,69.92
2022-09-11T14:26:37.051Z,71.33
2022-09-11T14:27:37.022Z,73.24
2022-09-11T14:28:37.048Z,74.65
2022-09-11T14:29:37.007Z,70.93
2022-09-11T14:30:37.661Z,71.23
2022-09-11T14:31:37.009Z,74.65
2022-09-11T14:32:37.117Z,75.96
2022-09-11T14:33:36.972Z,75.35
2022-09-11T14:34:36.986Z,75.35
2022-09-11T14:35:36.943Z,76.40
2022-09-11T14:36:36.944Z,75.90
2022-09-11T14:37:36.915Z,77.00
2022-09-11T14:38:37.078Z,74.79
2022-09-11T14:39:36.992Z,77.50
2022-09-11T14:40:36.902Z,74.08
2022-09-11T14:41:36.884Z,73.28
2022-09-11T14:42:36.888Z,75.49
2022-09-11T14:43:36.865Z,78.41
2022-09-11T14:44:36.877Z,79.92
2022-09-11T14:45:36.856Z,79.42
2022-09-11T14:46:36.975Z,80.83
2022-09-11T14:47:36.823Z,81.17
2022-09-11T14:48:36.823Z,81.98
2022-09-11T14:49:36.800Z,82.98
2022-09-11T14:50:45.717Z,82.48
2022-09-11T14:51:37.806Z,81.07
2022-09-11T14:52:36.775Z,78.55
2022-09-11T14:53:36.758Z,78.51
2022-09-11T14:54:36.763Z,76.94
2022-09-11T14:55:36.901Z,76.64
2022-09-11T14:56:36.837Z,79.86
2022-09-11T14:57:36.715Z,80.63
2022-09-11T14:58:36.975Z,81.63
2022-09-11T14:59:36.705Z,82.24
2022-09-11T15:00:36.737Z,80.52
2022-09-11T15:01:36.737Z,82.34
2022-09-11T15:02:36.673Z,82.14
2022-09-11T15:03:36.709Z,82.14
2022-09-11T15:04:36.653Z,83.39
2022-09-11T15:06:51.728Z,83.28
2022-09-11T15:08:00.911Z,83.89
2022-09-11T15:08:52.157Z,83.79
2022-09-11T15:10:03.230Z,82.38
2022-09-11T15:11:06.258Z,82.98
2022-09-11T15:11:51.582Z,81.17
2022-09-11T15:12:51.553Z,79.39
2022-09-11T15:14:13.412Z,81.61
2022-09-11T15:14:56.852Z,81.21
2022-09-11T15:15:51.570Z,82.11
2022-09-11T15:16:51.495Z,81.71
2022-09-11T15:17:51.501Z,82.01
2022-09-11T15:18:52.249Z,81.95
2022-09-11T15:19:51.484Z,81.24
2022-09-11T15:20:51.478Z,82.86
2022-09-11T15:21:51.468Z,82.76
2022-09-11T15:22:51.465Z,82.09
2022-09-11T15:23:51.436Z,82.70
2022-09-11T15:24:53.342Z,83.91
2022-09-11T15:25:51.440Z,84.41
2022-09-11T15:26:51.471Z,83.80
2022-09-11T15:29:12.047Z,80.68
2022-09-11T15:30:13.023Z,80.11
2022-09-11T15:31:14.089Z,83.74
2022-09-11T15:32:13.007Z,84.35
2022-09-11T15:33:19.659Z,81.02
2022-09-11T15:34:12.992Z,81.42
2022-09-11T15:35:41.637Z,83.24
2022-09-11T15:36:13.089Z,84.85
2022-09-11T15:37:12.938Z,84.85
2022-09-11T15:38:12.931Z,84.75
2022-09-11T15:39:12.911Z,84.79
2022-09-11T15:40:21.764Z,84.69
2022-09-11T15:41:12.914Z,84.09
2022-09-11T15:42:12.881Z,84.39
2022-09-11T15:43:12.915Z,83.68
2022-09-11T15:44:12.860Z,84.63
2022-09-11T15:45:12.889Z,85.94
2022-09-11T15:46:12.917Z,86.45
2022-09-11T15:47:13.012Z,86.55
2022-09-11T15:48:12.809Z,86.45
2022-09-11T15:49:12.826Z,86.55
2022-09-11T15:50:12.792Z,86.69
2022-09-11T15:51:13.474Z,86.08
2022-09-11T15:52:12.786Z,84.67
2022-09-11T15:53:12.780Z,85.22
2022-09-11T15:54:12.757Z,85.22
2022-09-11T15:55:12.772Z,86.22
2022-09-11T15:56:12.728Z,85.72
2022-09-11T15:57:12.731Z,86.77
2022-09-11T15:58:12.726Z,87.58
2022-09-11T15:59:12.731Z,88.70
2022-09-11T16:00:12.707Z,88.09
2022-09-11T16:01:12.727Z,88.19
2022-09-11T16:02:12.723Z,88.09
2022-09-11T16:03:12.664Z,88.19
2022-09-11T16:04:13.759Z,88.70
2022-09-11T16:05:12.670Z,88.39
2022-09-11T16:06:12.723Z,88.74
2022-09-11T16:07:12.646Z,89.14
2022-09-11T16:08:14.408Z,90.05
2022-09-11T16:09:14.133Z,90.45
2022-09-11T16:10:12.658Z,90.66
2022-09-11T16:11:12.809Z,90.56
2022-09-11T16:12:12.608Z,89.95
2022-09-11T16:13:12.607Z,89.34
2022-09-11T16:14:12.570Z,89.54
2022-09-11T16:15:12.569Z,89.04
2022-09-11T16:16:12.602Z,89.54
2022-09-11T16:17:12.755Z,89.54
2022-09-11T16:18:20.834Z,89.65
2022-09-11T16:19:12.617Z,90.45
2022-09-11T16:20:12.642Z,90.16
2022-09-11T16:21:13.951Z,90.76
2022-09-11T16:22:30.683Z,90.16
2022-09-11T16:23:12.482Z,90.05
2022-09-11T16:24:12.441Z,90.16
2022-09-11T16:25:13.283Z,89.85
2022-09-11T16:26:17.791Z,89.95
2022-09-11T16:27:12.526Z,90.16
2022-09-11T16:28:12.587Z,90.16
2022-09-11T16:29:12.567Z,90.16
2022-09-11T16:31:12.545Z,90.16
2022-09-11T16:32:12.695Z,90.36
2022-09-11T16:33:12.569Z,90.16
2022-09-11T16:34:12.471Z,89.85
2022-09-11T16:35:13.543Z,90.36
2022-09-11T16:36:16.944Z,90.66
2022-09-11T16:37:12.377Z,91.16
2022-09-11T16:38:12.417Z,91.16
2022-09-11T16:39:12.341Z,91.16
2022-09-11T16:40:12.363Z,90.96
2022-09-11T16:41:12.278Z,90.66
2022-09-11T16:42:18.832Z,90.45
2022-09-11T16:43:12.286Z,90.66
2022-09-11T16:44:12.245Z,90.45
2022-09-11T16:45:12.239Z,90.16
2022-09-11T16:46:12.211Z,90.76
2022-09-11T16:47:12.209Z,91.47
2022-09-11T16:48:12.205Z,91.77
2022-09-11T16:49:12.560Z,91.87
2022-09-11T16:50:12.181Z,92.18
2022-09-11T16:51:12.261Z,91.87
2022-09-11T16:52:12.154Z,91.61
2022-09-11T16:53:12.175Z,91.41
2022-09-11T16:54:12.127Z,90.70
2022-09-11T16:55:12.126Z,90.80
2022-09-11T16:56:12.121Z,90.80
2022-09-11T16:57:12.103Z,91.20
2022-09-11T16:58:12.108Z,91.92
2022-09-11T16:59:12.092Z,91.92
2022-09-11T17:00:12.063Z,91.20
2022-09-11T17:01:12.093Z,91.31
2022-09-11T17:02:12.127Z,91.82
2022-09-11T17:03:12.087Z,92.12
2022-09-11T17:04:12.048Z,92.22
2022-09-11T17:05:12.030Z,92.52
2022-09-11T17:06:12.019Z,92.87
2022-09-11T17:07:12.023Z,92.16
2022-09-11T17:08:12.237Z,92.26
2022-09-11T17:09:12.004Z,92.06
2022-09-11T17:10:11.960Z,92.47
2022-09-11T17:11:12.164Z,92.57
2022-09-11T17:12:11.939Z,92.87
2022-09-11T17:13:12.416Z,92.77
2022-09-11T17:14:11.920Z,92.82
2022-09-11T17:15:11.924Z,92.82
2022-09-11T17:16:16.149Z,92.71
2022-09-11T17:17:12.806Z,92.82
2022-09-11T17:18:11.900Z,92.91
2022-09-11T17:19:11.906Z,93.06
2022-09-11T17:20:11.879Z,93.06
2022-09-11T17:21:11.868Z,93.06
2022-09-11T17:22:11.841Z,92.96
2022-09-11T17:23:11.936Z,92.86
2022-09-11T17:24:11.848Z,93.16
2022-09-11T17:25:11.884Z,93.06
2022-09-11T17:26:11.805Z,93.06
2022-09-11T17:27:11.831Z,92.96
2022-09-11T17:28:11.823Z,93.06
2022-09-11T17:29:11.809Z,92.76
2022-09-11T17:30:11.875Z,93.00
2022-09-11T17:31:11.818Z,92.90
2022-09-11T17:32:27.351Z,93.00
2022-09-11T17:33:11.792Z,93.00
2022-09-11T17:34:11.719Z,93.10
2022-09-11T17:35:11.717Z,93.41
2022-09-11T17:36:11.721Z,93.41
2022-09-11T17:37:11.709Z,93.61
2022-09-11T17:38:11.693Z,93.61
2022-09-11T17:39:11.681Z,93.71
2022-09-11T17:40:11.727Z,93.81
2022-09-11T17:41:11.676Z,93.81
2022-09-11T17:42:13.355Z,94.12
2022-09-11T17:43:11.648Z,94.17
2022-09-11T17:44:11.607Z,94.26
2022-09-11T17:45:11.624Z,94.46
2022-09-11T17:46:11.675Z,94.06
2022-09-11T17:47:11.605Z,94.26
2022-09-11T17:48:11.624Z,94.17
2022-09-11T17:49:11.580Z,94.06
2022-09-11T17:50:11.665Z,94.17
2022-09-11T17:51:11.611Z,94.26
2022-09-11T17:52:11.689Z,94.31
2022-09-11T17:53:11.567Z,94.31
2022-09-11T17:54:11.539Z,94.51
2022-09-11T17:55:11.546Z,94.61
2022-09-11T17:56:11.488Z,94.51
2022-09-11T17:57:11.709Z,94.51
2022-09-11T17:58:11.517Z,94.51
2022-09-11T17:59:20.337Z,94.51
2022-09-11T18:00:20.907Z,94.51
2022-09-11T18:01:16.511Z,94.31
2022-09-11T18:02:13.448Z,94.41
2022-09-11T18:03:18.247Z,94.31
2022-09-11T18:04:11.417Z,94.00
2022-09-11T18:05:11.400Z,94.21
2022-09-11T18:06:11.396Z,94.92
2022-09-11T18:07:11.415Z,94.82
2022-09-11T18:08:11.377Z,94.51
2022-09-11T18:09:11.374Z,94.31
2022-09-11T18:10:11.506Z,94.10
2022-09-11T18:11:12.373Z,93.84
2022-09-11T18:12:11.319Z,94.05
2022-09-11T18:13:11.322Z,94.05
2022-09-11T18:14:11.299Z,94.35
2022-09-11T18:15:11.332Z,94.35
2022-09-11T18:16:13.282Z,94.56
2022-09-11T18:17:11.535Z,94.45
2022-09-11T18:18:11.441Z,94.66
2022-09-11T18:19:11.301Z,94.05
2022-09-11T18:20:11.227Z,93.64
2022-09-11T18:21:11.343Z,93.64
2022-09-11T18:22:11.249Z,93.44
2022-09-11T18:23:11.223Z,93.54
2022-09-11T18:24:11.742Z,93.68
2022-09-11T18:25:11.199Z,93.68
2022-09-11T18:26:11.191Z,93.89
2022-09-11T18:27:11.167Z,94.09
2022-09-11T18:28:11.184Z,93.99
2022-09-11T18:29:11.144Z,94.40
2022-09-11T18:30:11.140Z,94.29
2022-09-11T18:31:11.206Z,94.60
2022-09-11T18:32:11.149Z,94.54
2022-09-11T18:33:11.106Z,94.54
2022-09-11T18:34:11.122Z,95.15
2022-09-11T18:35:11.773Z,94.34
2022-09-11T18:36:11.088Z,94.13
2022-09-11T18:37:11.089Z,94.04
2022-09-11T18:38:11.091Z,94.24
2022-09-11T18:39:11.122Z,94.24
2022-09-11T18:40:11.090Z,94.34
2022-09-11T18:41:11.021Z,94.34
2022-09-11T18:42:11.029Z,95.05
2022-09-11T18:43:11.771Z,95.15
2022-09-11T18:44:11.043Z,94.34
2022-09-11T18:45:11.012Z,94.24
2022-09-11T18:46:11.027Z,94.44
2022-09-11T18:47:10.967Z,94.04
2022-09-11T18:48:10.986Z,93.93
2022-09-11T18:49:11.820Z,94.13
2022-09-11T18:50:10.978Z,94.34
2022-09-11T18:51:10.910Z,94.34
2022-09-11T18:52:10.921Z,94.59
2022-09-11T18:53:10.905Z,94.89
2022-09-11T18:54:10.908Z,95.00
2022-09-11T18:55:11.047Z,94.79
2022-09-11T18:56:10.881Z,94.79
2022-09-11T18:57:10.857Z,94.69
2022-09-11T18:58:10.985Z,94.69
2022-09-11T18:59:10.946Z,94.69
2022-09-11T19:00:10.836Z,94.59
2022-09-11T19:01:11.058Z,94.79
2022-09-11T19:02:10.903Z,94.69
2022-09-11T19:03:10.875Z,94.69
2022-09-11T19:04:10.803Z,95.20
2022-09-11T19:05:10.928Z,94.79
2022-09-11T19:06:10.772Z,94.59
2022-09-11T19:07:10.809Z,94.69
2022-09-11T19:08:10.869Z,95.00